sensor_id;sensor_type;location;lat;lon;timestamp;P1;durP1;ratioP1;P2;durP2;ratioP2
2404;SDS011;1213;43.206;27.922;2023-03-14T00:00:56;20.13;;;11.70;;
2404;SDS011;1213;43.206;27.922;2023-03-14T00:03:22;11.60;;;10.40;;
2404;SDS011;1213;43.206;27.922;2023-03-14T00:05:47;18.90;;;11.47;;
2404;SDS011;1213;43.206;27.922;2023-03-14T00:08:13;13.43;;;9.63;;
2404;SDS011;1213;43.206;27.922;2023-03-14T00:10:38;15.53;;;8.57;;
2404;SDS011;1213;43.206;27.922;2023-03-14T00:13:03;10.43;;;7.83;;
2404;SDS011;1213;43.206;27.922;2023-03-14T00:15:28;13.20;;;7.80;;
2404;SDS011;1213;43.206;27.922;2023-03-14T00:17:54;13.30;;;9.23;;
2404;SDS011;1213;43.206;27.922;2023-03-14T00:20:19;14.00;;;7.70;;
2404;SDS011;1213;43.206;27.922;2023-03-14T00:22:44;13.97;;;8.87;;
2404;SDS011;1213;43.206;27.922;2023-03-14T00:25:10;11.07;;;8.90;;
2404;SDS011;1213;43.206;27.922;2023-03-14T00:27:36;13.60;;;8.97;;
2404;SDS011;1213;43.206;27.922;2023-03-14T00:30:02;16.23;;;11.20;;
2404;SDS011;1213;43.206;27.922;2023-03-14T00:32:27;17.00;;;10.07;;
2404;SDS011;1213;43.206;27.922;2023-03-14T00:34:53;10.73;;;9.63;;
2404;SDS011;1213;43.206;27.922;2023-03-14T00:37:18;14.53;;;9.57;;
2404;SDS011;1213;43.206;27.922;2023-03-14T00:39:43;15.67;;;10.27;;
2404;SDS011;1213;43.206;27.922;2023-03-14T00:42:08;9.73;;;7.53;;
2404;SDS011;1213;43.206;27.922;2023-03-14T00:44:34;20.03;;;8.20;;
2404;SDS011;1213;43.206;27.922;2023-03-14T00:46:59;9.53;;;8.50;;
2404;SDS011;1213;43.206;27.922;2023-03-14T00:49:24;10.90;;;7.50;;
2404;SDS011;1213;43.206;27.922;2023-03-14T00:51:50;16.70;;;10.67;;
2404;SDS011;1213;43.206;27.922;2023-03-14T00:54:16;15.53;;;9.60;;
2404;SDS011;1213;43.206;27.922;2023-03-14T00:56:41;11.90;;;7.90;;
2404;SDS011;1213;43.206;27.922;2023-03-14T00:59:07;16.40;;;9.00;;
2404;SDS011;1213;43.206;27.922;2023-03-14T01:01:32;13.00;;;8.97;;
2404;SDS011;1213;43.206;27.922;2023-03-14T01:03:57;12.47;;;8.40;;
2404;SDS011;1213;43.206;27.922;2023-03-14T01:06:24;13.13;;;9.63;;
2404;SDS011;1213;43.206;27.922;2023-03-14T01:08:50;14.07;;;8.50;;
2404;SDS011;1213;43.206;27.922;2023-03-14T01:11:17;17.10;;;10.37;;
2404;SDS011;1213;43.206;27.922;2023-03-14T01:13:42;12.20;;;8.00;;
2404;SDS011;1213;43.206;27.922;2023-03-14T01:16:09;11.87;;;8.93;;
2404;SDS011;1213;43.206;27.922;2023-03-14T01:18:35;15.70;;;9.03;;
2404;SDS011;1213;43.206;27.922;2023-03-14T01:21:01;10.30;;;7.40;;
2404;SDS011;1213;43.206;27.922;2023-03-14T01:23:27;15.23;;;9.40;;
2404;SDS011;1213;43.206;27.922;2023-03-14T01:25:52;8.83;;;6.00;;
2404;SDS011;1213;43.206;27.922;2023-03-14T01:28:17;8.27;;;6.40;;
2404;SDS011;1213;43.206;27.922;2023-03-14T01:30:42;7.50;;;6.73;;
2404;SDS011;1213;43.206;27.922;2023-03-14T01:33:08;6.80;;;5.43;;
2404;SDS011;1213;43.206;27.922;2023-03-14T01:35:33;9.70;;;5.27;;
2404;SDS011;1213;43.206;27.922;2023-03-14T01:37:58;5.47;;;4.67;;
2404;SDS011;1213;43.206;27.922;2023-03-14T01:40:24;7.40;;;5.33;;
2404;SDS011;1213;43.206;27.922;2023-03-14T01:42:56;6.83;;;4.30;;
2404;SDS011;1213;43.206;27.922;2023-03-14T01:48:05;4.80;;;4.07;;
2404;SDS011;1213;43.206;27.922;2023-03-14T01:50:30;8.17;;;3.60;;
2404;SDS011;1213;43.206;27.922;2023-03-14T01:52:56;7.10;;;4.23;;
2404;SDS011;1213;43.206;27.922;2023-03-14T01:55:22;5.33;;;4.80;;
2404;SDS011;1213;43.206;27.922;2023-03-14T01:57:52;5.17;;;4.47;;
2404;SDS011;1213;43.206;27.922;2023-03-14T02:00:22;12.73;;;5.63;;
2404;SDS011;1213;43.206;27.922;2023-03-14T02:02:49;8.80;;;6.00;;
2404;SDS011;1213;43.206;27.922;2023-03-14T02:05:16;9.23;;;7.50;;
2404;SDS011;1213;43.206;27.922;2023-03-14T02:07:50;10.87;;;7.93;;
2404;SDS011;1213;43.206;27.922;2023-03-14T02:10:17;9.80;;;6.77;;
2404;SDS011;1213;43.206;27.922;2023-03-14T02:12:44;11.53;;;8.60;;
2404;SDS011;1213;43.206;27.922;2023-03-14T02:15:10;10.73;;;7.67;;
2404;SDS011;1213;43.206;27.922;2023-03-14T02:17:35;14.10;;;9.33;;
2404;SDS011;1213;43.206;27.922;2023-03-14T02:22:26;11.47;;;7.07;;
2404;SDS011;1213;43.206;27.922;2023-03-14T02:27:22;16.73;;;6.27;;
2404;SDS011;1213;43.206;27.922;2023-03-14T02:29:55;8.07;;;5.97;;
2404;SDS011;1213;43.206;27.922;2023-03-14T02:32:21;8.57;;;5.17;;
2404;SDS011;1213;43.206;27.922;2023-03-14T02:34:48;12.87;;;7.50;;
2404;SDS011;1213;43.206;27.922;2023-03-14T02:37:14;7.23;;;5.53;;
2404;SDS011;1213;43.206;27.922;2023-03-14T02:39:42;12.83;;;7.20;;
2404;SDS011;1213;43.206;27.922;2023-03-14T02:42:09;6.50;;;5.30;;
2404;SDS011;1213;43.206;27.922;2023-03-14T02:44:34;5.70;;;5.10;;
2404;SDS011;1213;43.206;27.922;2023-03-14T02:47:00;5.47;;;4.90;;
2404;SDS011;1213;43.206;27.922;2023-03-14T02:49:26;6.63;;;4.40;;
2404;SDS011;1213;43.206;27.922;2023-03-14T02:51:53;4.57;;;4.20;;
2404;SDS011;1213;43.206;27.922;2023-03-14T02:54:18;9.90;;;6.97;;
2404;SDS011;1213;43.206;27.922;2023-03-14T02:56:44;9.87;;;5.93;;
2404;SDS011;1213;43.206;27.922;2023-03-14T02:59:09;4.37;;;3.53;;
2404;SDS011;1213;43.206;27.922;2023-03-14T03:01:34;5.77;;;3.33;;
2404;SDS011;1213;43.206;27.922;2023-03-14T03:04:00;6.87;;;5.40;;
2404;SDS011;1213;43.206;27.922;2023-03-14T03:06:25;7.27;;;4.70;;
2404;SDS011;1213;43.206;27.922;2023-03-14T03:08:50;5.47;;;4.20;;
2404;SDS011;1213;43.206;27.922;2023-03-14T03:11:16;5.20;;;4.70;;
2404;SDS011;1213;43.206;27.922;2023-03-14T03:13:41;7.60;;;6.07;;
2404;SDS011;1213;43.206;27.922;2023-03-14T03:16:06;12.80;;;6.17;;
2404;SDS011;1213;43.206;27.922;2023-03-14T03:18:32;5.03;;;4.67;;
2404;SDS011;1213;43.206;27.922;2023-03-14T03:21:01;11.27;;;6.70;;
2404;SDS011;1213;43.206;27.922;2023-03-14T03:23:26;6.27;;;4.60;;
2404;SDS011;1213;43.206;27.922;2023-03-14T03:25:51;7.93;;;7.33;;
2404;SDS011;1213;43.206;27.922;2023-03-14T03:28:17;7.33;;;6.27;;
2404;SDS011;1213;43.206;27.922;2023-03-14T03:30:43;10.47;;;6.47;;
2404;SDS011;1213;43.206;27.922;2023-03-14T03:33:08;9.90;;;6.30;;
2404;SDS011;1213;43.206;27.922;2023-03-14T03:35:34;12.10;;;6.93;;
2404;SDS011;1213;43.206;27.922;2023-03-14T03:37:59;7.23;;;6.30;;
2404;SDS011;1213;43.206;27.922;2023-03-14T03:40:24;7.97;;;7.03;;
2404;SDS011;1213;43.206;27.922;2023-03-14T03:42:50;9.30;;;8.10;;
2404;SDS011;1213;43.206;27.922;2023-03-14T03:45:16;21.17;;;7.20;;
2404;SDS011;1213;43.206;27.922;2023-03-14T03:47:41;7.13;;;6.40;;
2404;SDS011;1213;43.206;27.922;2023-03-14T03:50:06;8.73;;;6.70;;
2404;SDS011;1213;43.206;27.922;2023-03-14T03:52:32;8.37;;;6.20;;
2404;SDS011;1213;43.206;27.922;2023-03-14T03:54:57;15.63;;;8.00;;
2404;SDS011;1213;43.206;27.922;2023-03-14T03:57:22;9.33;;;7.43;;
2404;SDS011;1213;43.206;27.922;2023-03-14T03:59:47;11.27;;;7.90;;
2404;SDS011;1213;43.206;27.922;2023-03-14T04:02:13;7.97;;;7.17;;
2404;SDS011;1213;43.206;27.922;2023-03-14T04:04:39;13.30;;;7.10;;
2404;SDS011;1213;43.206;27.922;2023-03-14T04:07:04;7.00;;;6.47;;
2404;SDS011;1213;43.206;27.922;2023-03-14T04:09:30;8.33;;;7.50;;
2404;SDS011;1213;43.206;27.922;2023-03-14T04:11:56;8.70;;;6.37;;
2404;SDS011;1213;43.206;27.922;2023-03-14T04:14:21;10.40;;;8.00;;
2404;SDS011;1213;43.206;27.922;2023-03-14T04:16:46;9.07;;;8.20;;
2404;SDS011;1213;43.206;27.922;2023-03-14T04:19:12;12.70;;;6.10;;
2404;SDS011;1213;43.206;27.922;2023-03-14T04:21:37;7.93;;;7.20;;
2404;SDS011;1213;43.206;27.922;2023-03-14T04:24:05;14.23;;;9.37;;
2404;SDS011;1213;43.206;27.922;2023-03-14T04:26:30;12.83;;;8.10;;
2404;SDS011;1213;43.206;27.922;2023-03-14T04:28:56;12.30;;;9.73;;
2404;SDS011;1213;43.206;27.922;2023-03-14T04:31:21;10.97;;;7.70;;
2404;SDS011;1213;43.206;27.922;2023-03-14T04:33:46;17.53;;;9.13;;
2404;SDS011;1213;43.206;27.922;2023-03-14T04:36:12;7.47;;;6.57;;
2404;SDS011;1213;43.206;27.922;2023-03-14T04:38:37;9.83;;;5.80;;
2404;SDS011;1213;43.206;27.922;2023-03-14T04:41:03;10.17;;;5.93;;
2404;SDS011;1213;43.206;27.922;2023-03-14T04:43:28;12.30;;;5.80;;
2404;SDS011;1213;43.206;27.922;2023-03-14T04:45:54;5.90;;;5.07;;
2404;SDS011;1213;43.206;27.922;2023-03-14T04:48:19;6.40;;;5.50;;
2404;SDS011;1213;43.206;27.922;2023-03-14T04:50:45;6.83;;;4.63;;
2404;SDS011;1213;43.206;27.922;2023-03-14T04:53:11;11.17;;;4.70;;
2404;SDS011;1213;43.206;27.922;2023-03-14T04:55:36;6.33;;;5.30;;
2404;SDS011;1213;43.206;27.922;2023-03-14T04:58:02;13.40;;;8.27;;
2404;SDS011;1213;43.206;27.922;2023-03-14T05:00:27;8.33;;;4.93;;
2404;SDS011;1213;43.206;27.922;2023-03-14T05:02:52;9.17;;;5.77;;
2404;SDS011;1213;43.206;27.922;2023-03-14T05:05:17;7.40;;;5.50;;
2404;SDS011;1213;43.206;27.922;2023-03-14T05:07:43;8.17;;;5.93;;
2404;SDS011;1213;43.206;27.922;2023-03-14T05:10:08;8.60;;;5.80;;
2404;SDS011;1213;43.206;27.922;2023-03-14T05:12:34;7.83;;;6.17;;
2404;SDS011;1213;43.206;27.922;2023-03-14T05:14:59;10.47;;;6.50;;
2404;SDS011;1213;43.206;27.922;2023-03-14T05:17:25;4.37;;;3.47;;
2404;SDS011;1213;43.206;27.922;2023-03-14T05:19:50;17.57;;;5.27;;
2404;SDS011;1213;43.206;27.922;2023-03-14T05:22:15;9.27;;;5.40;;
2404;SDS011;1213;43.206;27.922;2023-03-14T05:24:40;10.93;;;5.50;;
2404;SDS011;1213;43.206;27.922;2023-03-14T05:27:06;9.20;;;6.80;;
2404;SDS011;1213;43.206;27.922;2023-03-14T05:29:31;13.93;;;9.57;;
2404;SDS011;1213;43.206;27.922;2023-03-14T05:31:56;8.17;;;7.37;;
2404;SDS011;1213;43.206;27.922;2023-03-14T05:34:21;13.43;;;8.00;;
2404;SDS011;1213;43.206;27.922;2023-03-14T05:36:47;9.70;;;7.33;;
2404;SDS011;1213;43.206;27.922;2023-03-14T05:39:12;11.40;;;8.80;;
2404;SDS011;1213;43.206;27.922;2023-03-14T05:41:38;15.83;;;9.57;;
2404;SDS011;1213;43.206;27.922;2023-03-14T05:44:03;10.43;;;8.10;;
2404;SDS011;1213;43.206;27.922;2023-03-14T05:46:29;12.67;;;10.23;;
2404;SDS011;1213;43.206;27.922;2023-03-14T05:48:56;10.40;;;8.17;;
2404;SDS011;1213;43.206;27.922;2023-03-14T05:51:21;20.43;;;9.67;;
2404;SDS011;1213;43.206;27.922;2023-03-14T05:53:46;16.63;;;9.13;;
2404;SDS011;1213;43.206;27.922;2023-03-14T05:56:11;9.93;;;8.50;;
2404;SDS011;1213;43.206;27.922;2023-03-14T05:58:37;13.33;;;8.90;;
2404;SDS011;1213;43.206;27.922;2023-03-14T06:01:03;11.53;;;9.80;;
2404;SDS011;1213;43.206;27.922;2023-03-14T06:03:29;21.73;;;11.47;;
2404;SDS011;1213;43.206;27.922;2023-03-14T06:05:54;17.33;;;11.00;;
2404;SDS011;1213;43.206;27.922;2023-03-14T06:08:19;12.60;;;9.53;;
2404;SDS011;1213;43.206;27.922;2023-03-14T06:10:45;11.80;;;8.70;;
2404;SDS011;1213;43.206;27.922;2023-03-14T06:13:10;16.17;;;9.17;;
2404;SDS011;1213;43.206;27.922;2023-03-14T06:15:35;6.27;;;5.70;;
2404;SDS011;1213;43.206;27.922;2023-03-14T06:18:01;13.57;;;7.83;;
2404;SDS011;1213;43.206;27.922;2023-03-14T06:20:26;14.13;;;7.10;;
2404;SDS011;1213;43.206;27.922;2023-03-14T06:22:52;7.50;;;6.73;;
2404;SDS011;1213;43.206;27.922;2023-03-14T06:25:17;9.00;;;3.80;;
2404;SDS011;1213;43.206;27.922;2023-03-14T06:27:42;15.00;;;4.10;;
2404;SDS011;1213;43.206;27.922;2023-03-14T06:30:08;5.90;;;4.47;;
2404;SDS011;1213;43.206;27.922;2023-03-14T06:32:33;7.73;;;5.33;;
2404;SDS011;1213;43.206;27.922;2023-03-14T06:34:58;7.17;;;4.20;;
2404;SDS011;1213;43.206;27.922;2023-03-14T06:37:26;3.57;;;3.27;;
2404;SDS011;1213;43.206;27.922;2023-03-14T06:39:51;4.50;;;4.00;;
2404;SDS011;1213;43.206;27.922;2023-03-14T06:42:17;4.67;;;3.10;;
2404;SDS011;1213;43.206;27.922;2023-03-14T06:44:42;4.87;;;4.47;;
2404;SDS011;1213;43.206;27.922;2023-03-14T06:47:07;3.30;;;2.40;;
2404;SDS011;1213;43.206;27.922;2023-03-14T06:49:32;3.90;;;2.33;;
2404;SDS011;1213;43.206;27.922;2023-03-14T06:51:58;5.43;;;2.80;;
2404;SDS011;1213;43.206;27.922;2023-03-14T06:54:23;4.90;;;2.60;;
2404;SDS011;1213;43.206;27.922;2023-03-14T06:56:48;2.77;;;2.57;;
2404;SDS011;1213;43.206;27.922;2023-03-14T06:59:13;5.27;;;2.03;;
2404;SDS011;1213;43.206;27.922;2023-03-14T07:01:39;5.47;;;2.47;;
2404;SDS011;1213;43.206;27.922;2023-03-14T07:04:05;4.30;;;2.80;;
2404;SDS011;1213;43.206;27.922;2023-03-14T07:06:30;2.83;;;2.30;;
2404;SDS011;1213;43.206;27.922;2023-03-14T07:08:56;4.23;;;2.40;;
2404;SDS011;1213;43.206;27.922;2023-03-14T07:11:23;7.73;;;1.90;;
2404;SDS011;1213;43.206;27.922;2023-03-14T07:13:48;2.70;;;1.67;;
2404;SDS011;1213;43.206;27.922;2023-03-14T07:16:13;1.80;;;1.70;;
2404;SDS011;1213;43.206;27.922;2023-03-14T07:18:39;1.70;;;1.60;;
2404;SDS011;1213;43.206;27.922;2023-03-14T07:21:05;1.67;;;1.30;;
2404;SDS011;1213;43.206;27.922;2023-03-14T07:23:31;1.83;;;1.67;;
2404;SDS011;1213;43.206;27.922;2023-03-14T07:25:56;1.90;;;1.80;;
2404;SDS011;1213;43.206;27.922;2023-03-14T07:28:21;3.00;;;1.97;;
2404;SDS011;1213;43.206;27.922;2023-03-14T07:30:48;5.33;;;2.10;;
2404;SDS011;1213;43.206;27.922;2023-03-14T07:33:13;2.00;;;1.47;;
2404;SDS011;1213;43.206;27.922;2023-03-14T07:35:38;2.97;;;2.77;;
2404;SDS011;1213;43.206;27.922;2023-03-14T07:38:04;3.03;;;2.63;;
2404;SDS011;1213;43.206;27.922;2023-03-14T07:40:29;1.70;;;1.60;;
2404;SDS011;1213;43.206;27.922;2023-03-14T07:42:54;2.40;;;2.03;;
2404;SDS011;1213;43.206;27.922;2023-03-14T07:45:20;4.40;;;2.40;;
2404;SDS011;1213;43.206;27.922;2023-03-14T07:47:45;2.40;;;2.00;;
2404;SDS011;1213;43.206;27.922;2023-03-14T07:50:11;2.17;;;2.00;;
2404;SDS011;1213;43.206;27.922;2023-03-14T07:52:36;2.30;;;2.00;;
2404;SDS011;1213;43.206;27.922;2023-03-14T07:55:01;4.50;;;2.43;;
2404;SDS011;1213;43.206;27.922;2023-03-14T07:57:26;2.70;;;2.17;;
2404;SDS011;1213;43.206;27.922;2023-03-14T07:59:52;1.40;;;1.30;;
2404;SDS011;1213;43.206;27.922;2023-03-14T08:02:17;3.23;;;1.60;;
2404;SDS011;1213;43.206;27.922;2023-03-14T08:04:45;1.20;;;1.10;;
2404;SDS011;1213;43.206;27.922;2023-03-14T08:07:10;3.47;;;1.47;;
2404;SDS011;1213;43.206;27.922;2023-03-14T08:09:35;2.00;;;1.80;;
2404;SDS011;1213;43.206;27.922;2023-03-14T08:12:01;2.60;;;1.33;;
2404;SDS011;1213;43.206;27.922;2023-03-14T08:14:26;2.70;;;1.70;;
2404;SDS011;1213;43.206;27.922;2023-03-14T08:16:54;3.83;;;1.77;;
2404;SDS011;1213;43.206;27.922;2023-03-14T08:19:19;1.83;;;1.40;;
2404;SDS011;1213;43.206;27.922;2023-03-14T08:21:44;1.50;;;1.40;;
2404;SDS011;1213;43.206;27.922;2023-03-14T08:24:09;1.67;;;1.57;;
2404;SDS011;1213;43.206;27.922;2023-03-14T08:26:35;2.23;;;1.73;;
2404;SDS011;1213;43.206;27.922;2023-03-14T08:29:00;1.97;;;1.80;;
2404;SDS011;1213;43.206;27.922;2023-03-14T08:31:25;1.70;;;1.60;;
2404;SDS011;1213;43.206;27.922;2023-03-14T08:33:51;1.33;;;1.20;;
2404;SDS011;1213;43.206;27.922;2023-03-14T08:36:17;5.77;;;2.20;;
2404;SDS011;1213;43.206;27.922;2023-03-14T08:38:42;2.07;;;1.70;;
2404;SDS011;1213;43.206;27.922;2023-03-14T08:41:08;1.47;;;1.37;;
2404;SDS011;1213;43.206;27.922;2023-03-14T08:43:33;5.50;;;1.93;;
2404;SDS011;1213;43.206;27.922;2023-03-14T08:45:59;2.50;;;1.20;;
2404;SDS011;1213;43.206;27.922;2023-03-14T08:48:25;4.25;;;1.52;;
2404;SDS011;1213;43.206;27.922;2023-03-14T08:50:50;2.03;;;1.57;;
2404;SDS011;1213;43.206;27.922;2023-03-14T08:53:15;2.10;;;1.77;;
2404;SDS011;1213;43.206;27.922;2023-03-14T08:55:40;1.40;;;1.23;;
2404;SDS011;1213;43.206;27.922;2023-03-14T08:58:06;3.77;;;1.70;;
2404;SDS011;1213;43.206;27.922;2023-03-14T09:00:31;1.70;;;1.50;;
2404;SDS011;1213;43.206;27.922;2023-03-14T09:02:56;4.67;;;2.37;;
2404;SDS011;1213;43.206;27.922;2023-03-14T09:05:22;3.00;;;1.90;;
2404;SDS011;1213;43.206;27.922;2023-03-14T09:07:47;1.33;;;1.23;;
2404;SDS011;1213;43.206;27.922;2023-03-14T09:10:12;1.10;;;1.00;;
2404;SDS011;1213;43.206;27.922;2023-03-14T09:12:38;1.50;;;1.40;;
2404;SDS011;1213;43.206;27.922;2023-03-14T09:15:03;2.33;;;1.90;;
2404;SDS011;1213;43.206;27.922;2023-03-14T09:17:29;2.57;;;1.80;;
2404;SDS011;1213;43.206;27.922;2023-03-14T09:19:54;1.53;;;1.30;;
2404;SDS011;1213;43.206;27.922;2023-03-14T09:22:19;1.30;;;1.03;;
2404;SDS011;1213;43.206;27.922;2023-03-14T09:24:45;1.83;;;1.20;;
2404;SDS011;1213;43.206;27.922;2023-03-14T09:27:11;1.60;;;1.40;;
2404;SDS011;1213;43.206;27.922;2023-03-14T09:29:36;2.73;;;1.20;;
2404;SDS011;1213;43.206;27.922;2023-03-14T09:32:02;1.13;;;1.03;;
2404;SDS011;1213;43.206;27.922;2023-03-14T09:34:27;1.87;;;1.13;;
2404;SDS011;1213;43.206;27.922;2023-03-14T09:36:52;1.73;;;1.63;;
2404;SDS011;1213;43.206;27.922;2023-03-14T09:39:17;2.47;;;2.10;;
2404;SDS011;1213;43.206;27.922;2023-03-14T09:41:44;2.10;;;0.87;;
2404;SDS011;1213;43.206;27.922;2023-03-14T09:44:13;1.40;;;1.27;;
2404;SDS011;1213;43.206;27.922;2023-03-14T09:46:39;2.20;;;1.40;;
2404;SDS011;1213;43.206;27.922;2023-03-14T09:51:55;1.50;;;1.20;;
2404;SDS011;1213;43.206;27.922;2023-03-14T09:54:28;1.10;;;0.97;;
2404;SDS011;1213;43.206;27.922;2023-03-14T09:56:54;3.10;;;1.00;;
2404;SDS011;1213;43.206;27.922;2023-03-14T09:59:19;1.00;;;0.90;;
2404;SDS011;1213;43.206;27.922;2023-03-14T10:01:45;1.50;;;1.13;;
2404;SDS011;1213;43.206;27.922;2023-03-14T10:04:12;9.93;;;1.07;;
2404;SDS011;1213;43.206;27.922;2023-03-14T10:06:39;4.43;;;1.30;;
2404;SDS011;1213;43.206;27.922;2023-03-14T10:09:04;2.10;;;1.03;;
2404;SDS011;1213;43.206;27.922;2023-03-14T10:11:31;1.20;;;1.03;;
2404;SDS011;1213;43.206;27.922;2023-03-14T10:14:06;1.20;;;1.00;;
2404;SDS011;1213;43.206;27.922;2023-03-14T10:16:36;1.30;;;1.03;;
2404;SDS011;1213;43.206;27.922;2023-03-14T10:19:03;7.53;;;1.33;;
2404;SDS011;1213;43.206;27.922;2023-03-14T10:21:29;2.80;;;1.10;;
2404;SDS011;1213;43.206;27.922;2023-03-14T10:24:06;2.10;;;1.30;;
2404;SDS011;1213;43.206;27.922;2023-03-14T10:26:31;1.40;;;1.30;;
2404;SDS011;1213;43.206;27.922;2023-03-14T10:29:11;1.40;;;1.13;;
2404;SDS011;1213;43.206;27.922;2023-03-14T10:31:47;5.20;;;2.17;;
2404;SDS011;1213;43.206;27.922;2023-03-14T10:34:20;10.33;;;5.50;;
2404;SDS011;1213;43.206;27.922;2023-03-14T10:36:45;5.30;;;1.10;;
2404;SDS011;1213;43.206;27.922;2023-03-14T10:39:27;4.00;;;1.47;;
2404;SDS011;1213;43.206;27.922;2023-03-14T10:42:54;1.90;;;1.10;;
2404;SDS011;1213;43.206;27.922;2023-03-14T10:44:49;1.90;;;1.60;;
2404;SDS011;1213;43.206;27.922;2023-03-14T10:47:17;1.70;;;1.37;;
2404;SDS011;1213;43.206;27.922;2023-03-14T10:49:43;1.20;;;1.10;;
2404;SDS011;1213;43.206;27.922;2023-03-14T10:54:34;1.33;;;1.10;;
2404;SDS011;1213;43.206;27.922;2023-03-14T10:57:00;2.57;;;1.20;;
2404;SDS011;1213;43.206;27.922;2023-03-14T10:59:26;1.67;;;1.40;;
2404;SDS011;1213;43.206;27.922;2023-03-14T11:01:58;3.20;;;1.27;;
2404;SDS011;1213;43.206;27.922;2023-03-14T11:09:39;4.10;;;1.23;;
2404;SDS011;1213;43.206;27.922;2023-03-14T11:14:49;2.80;;;2.60;;
2404;SDS011;1213;43.206;27.922;2023-03-14T11:17:27;3.20;;;1.23;;
2404;SDS011;1213;43.206;27.922;2023-03-14T11:27:30;4.30;;;1.60;;
2404;SDS011;1213;43.206;27.922;2023-03-14T11:34:54;2.63;;;1.13;;
2404;SDS011;1213;43.206;27.922;2023-03-14T11:39:56;1.40;;;1.30;;
2404;SDS011;1213;43.206;27.922;2023-03-14T11:42:24;1.40;;;1.13;;
2404;SDS011;1213;43.206;27.922;2023-03-14T11:44:51;1.87;;;1.00;;
2404;SDS011;1213;43.206;27.922;2023-03-14T11:47:22;1.90;;;1.17;;
2404;SDS011;1213;43.206;27.922;2023-03-14T11:52:25;1.60;;;1.10;;
2404;SDS011;1213;43.206;27.922;2023-03-14T11:57:24;5.50;;;4.07;;
2404;SDS011;1213;43.206;27.922;2023-03-14T11:59:52;2.53;;;1.30;;
2404;SDS011;1213;43.206;27.922;2023-03-14T12:07:26;3.77;;;1.10;;
2404;SDS011;1213;43.206;27.922;2023-03-14T12:09:53;1.40;;;1.10;;
2404;SDS011;1213;43.206;27.922;2023-03-14T12:12:20;4.60;;;1.80;;
2404;SDS011;1213;43.206;27.922;2023-03-14T12:14:51;8.90;;;7.40;;
2404;SDS011;1213;43.206;27.922;2023-03-14T12:17:21;6.60;;;5.53;;
2404;SDS011;1213;43.206;27.922;2023-03-14T12:19:48;1.90;;;1.63;;
2404;SDS011;1213;43.206;27.922;2023-03-14T12:22:26;3.27;;;1.67;;
2404;SDS011;1213;43.206;27.922;2023-03-14T12:30:25;1.60;;;1.50;;
2404;SDS011;1213;43.206;27.922;2023-03-14T12:38:03;1.03;;;0.93;;
2404;SDS011;1213;43.206;27.922;2023-03-14T12:40:33;1.30;;;1.10;;
2404;SDS011;1213;43.206;27.922;2023-03-14T12:43:01;1.93;;;0.90;;
2404;SDS011;1213;43.206;27.922;2023-03-14T12:45:33;7.50;;;1.37;;
2404;SDS011;1213;43.206;27.922;2023-03-14T12:48:01;2.80;;;1.20;;
2404;SDS011;1213;43.206;27.922;2023-03-14T12:50:35;1.40;;;1.30;;
2404;SDS011;1213;43.206;27.922;2023-03-14T13:01:02;3.77;;;1.20;;
2404;SDS011;1213;43.206;27.922;2023-03-14T13:03:43;4.10;;;2.77;;
2404;SDS011;1213;43.206;27.922;2023-03-14T13:06:10;6.15;;;3.38;;
2404;SDS011;1213;43.206;27.922;2023-03-14T13:08:44;7.10;;;5.87;;
2404;SDS011;1213;43.206;27.922;2023-03-14T13:11:12;1.40;;;1.30;;
2404;SDS011;1213;43.206;27.922;2023-03-14T13:13:40;2.03;;;1.77;;
2404;SDS011;1213;43.206;27.922;2023-03-14T13:16:09;1.70;;;1.60;;
2404;SDS011;1213;43.206;27.922;2023-03-14T13:18:41;2.77;;;1.60;;
2404;SDS011;1213;43.206;27.922;2023-03-14T13:23:42;2.20;;;1.27;;
2404;SDS011;1213;43.206;27.922;2023-03-14T13:26:18;4.50;;;1.13;;
2404;SDS011;1213;43.206;27.922;2023-03-14T13:28:43;1.30;;;1.07;;
2404;SDS011;1213;43.206;27.922;2023-03-14T13:31:12;1.40;;;1.10;;
2404;SDS011;1213;43.206;27.922;2023-03-14T13:33:42;1.33;;;1.23;;
2404;SDS011;1213;43.206;27.922;2023-03-14T13:36:08;1.47;;;1.00;;
2404;SDS011;1213;43.206;27.922;2023-03-14T13:38:35;2.53;;;1.10;;
2404;SDS011;1213;43.206;27.922;2023-03-14T13:41:03;1.50;;;1.20;;
2404;SDS011;1213;43.206;27.922;2023-03-14T13:46:01;1.80;;;1.33;;
2404;SDS011;1213;43.206;27.922;2023-03-14T13:48:28;1.57;;;1.10;;
2404;SDS011;1213;43.206;27.922;2023-03-14T13:51:07;3.43;;;1.57;;
2404;SDS011;1213;43.206;27.922;2023-03-14T13:53:45;1.20;;;0.90;;
2404;SDS011;1213;43.206;27.922;2023-03-14T13:56:11;2.83;;;1.07;;
2404;SDS011;1213;43.206;27.922;2023-03-14T13:58:37;1.20;;;1.10;;
2404;SDS011;1213;43.206;27.922;2023-03-14T14:01:05;1.10;;;0.80;;
2404;SDS011;1213;43.206;27.922;2023-03-14T14:03:31;1.90;;;1.37;;
2404;SDS011;1213;43.206;27.922;2023-03-14T14:05:56;3.20;;;1.37;;
2404;SDS011;1213;43.206;27.922;2023-03-14T14:08:23;9.40;;;1.13;;
2404;SDS011;1213;43.206;27.922;2023-03-14T14:10:49;1.60;;;1.00;;
2404;SDS011;1213;43.206;27.922;2023-03-14T14:13:15;1.23;;;1.13;;
2404;SDS011;1213;43.206;27.922;2023-03-14T14:15:44;3.50;;;1.30;;
2404;SDS011;1213;43.206;27.922;2023-03-14T14:18:11;1.50;;;0.90;;
2404;SDS011;1213;43.206;27.922;2023-03-14T14:20:38;2.37;;;1.10;;
2404;SDS011;1213;43.206;27.922;2023-03-14T14:23:05;3.30;;;1.33;;
2404;SDS011;1213;43.206;27.922;2023-03-14T14:25:31;2.17;;;1.40;;
2404;SDS011;1213;43.206;27.922;2023-03-14T14:27:57;4.10;;;1.27;;
2404;SDS011;1213;43.206;27.922;2023-03-14T14:30:30;1.27;;;0.97;;
2404;SDS011;1213;43.206;27.922;2023-03-14T14:33:10;1.10;;;0.93;;
2404;SDS011;1213;43.206;27.922;2023-03-14T14:35:36;4.10;;;1.40;;
2404;SDS011;1213;43.206;27.922;2023-03-14T14:38:01;1.40;;;1.13;;
2404;SDS011;1213;43.206;27.922;2023-03-14T14:40:28;1.77;;;0.90;;
2404;SDS011;1213;43.206;27.922;2023-03-14T14:42:53;4.70;;;1.37;;
2404;SDS011;1213;43.206;27.922;2023-03-14T14:45:20;1.60;;;1.33;;
2404;SDS011;1213;43.206;27.922;2023-03-14T14:50:33;1.20;;;1.10;;
2404;SDS011;1213;43.206;27.922;2023-03-14T14:53:00;5.13;;;3.07;;
2404;SDS011;1213;43.206;27.922;2023-03-14T14:55:31;8.67;;;6.37;;
2404;SDS011;1213;43.206;27.922;2023-03-14T14:57:58;10.10;;;3.43;;
2404;SDS011;1213;43.206;27.922;2023-03-14T15:00:35;2.70;;;1.27;;
2404;SDS011;1213;43.206;27.922;2023-03-14T15:03:04;3.93;;;2.87;;
2404;SDS011;1213;43.206;27.922;2023-03-14T15:05:29;6.97;;;4.00;;
2404;SDS011;1213;43.206;27.922;2023-03-14T15:08:00;4.57;;;2.20;;
2404;SDS011;1213;43.206;27.922;2023-03-14T15:10:26;7.00;;;4.63;;
2404;SDS011;1213;43.206;27.922;2023-03-14T15:12:51;8.33;;;3.57;;
2404;SDS011;1213;43.206;27.922;2023-03-14T15:15:17;6.80;;;4.40;;
2404;SDS011;1213;43.206;27.922;2023-03-14T15:17:42;21.90;;;14.70;;
2404;SDS011;1213;43.206;27.922;2023-03-14T15:20:12;10.10;;;5.40;;
2404;SDS011;1213;43.206;27.922;2023-03-14T15:22:38;6.70;;;2.60;;
2404;SDS011;1213;43.206;27.922;2023-03-14T15:25:04;1.63;;;1.07;;
2404;SDS011;1213;43.206;27.922;2023-03-14T15:27:29;2.13;;;1.40;;
2404;SDS011;1213;43.206;27.922;2023-03-14T15:29:58;1.20;;;1.10;;
2404;SDS011;1213;43.206;27.922;2023-03-14T15:32:24;1.40;;;1.30;;
2404;SDS011;1213;43.206;27.922;2023-03-14T15:34:49;1.27;;;1.03;;
2404;SDS011;1213;43.206;27.922;2023-03-14T15:37:15;1.60;;;1.50;;
2404;SDS011;1213;43.206;27.922;2023-03-14T15:39:44;1.50;;;1.10;;
2404;SDS011;1213;43.206;27.922;2023-03-14T15:42:09;1.20;;;1.00;;
2404;SDS011;1213;43.206;27.922;2023-03-14T15:44:35;6.30;;;3.40;;
2404;SDS011;1213;43.206;27.922;2023-03-14T15:47:00;5.40;;;2.53;;
2404;SDS011;1213;43.206;27.922;2023-03-14T15:49:26;1.40;;;1.30;;
2404;SDS011;1213;43.206;27.922;2023-03-14T15:51:51;2.47;;;1.43;;
2404;SDS011;1213;43.206;27.922;2023-03-14T15:54:17;2.90;;;2.00;;
2404;SDS011;1213;43.206;27.922;2023-03-14T15:56:42;1.60;;;1.50;;
2404;SDS011;1213;43.206;27.922;2023-03-14T15:59:08;3.47;;;1.23;;
2404;SDS011;1213;43.206;27.922;2023-03-14T16:01:33;2.27;;;1.63;;
2404;SDS011;1213;43.206;27.922;2023-03-14T16:03:58;3.30;;;2.03;;
2404;SDS011;1213;43.206;27.922;2023-03-14T16:06:23;2.97;;;1.83;;